sensor_id;sensor_type;location;lat;lon;timestamp;pressure;altitude;pressure_sealevel;temperature;humidity
37848;BME280;23688;33.130;-117.188;2023-01-25T00:02:08;100235.34;;;17.45;33.14
37848;BME280;23688;33.130;-117.188;2023-01-25T00:04:35;100243.69;;;17.64;34.07
37848;BME280;23688;33.130;-117.188;2023-01-25T00:07:01;100240.72;;;17.83;32.47
37848;BME280;23688;33.130;-117.188;2023-01-25T00:09:29;100228.25;;;18.12;32.81
37848;BME280;23688;33.130;-117.188;2023-01-25T00:11:55;100222.06;;;17.74;32.98
37848;BME280;23688;33.130;-117.188;2023-01-25T00:14:23;100225.13;;;17.56;32.39
37848;BME280;23688;33.130;-117.188;2023-01-25T00:16:49;100234.53;;;17.46;32.87
37848;BME280;23688;33.130;-117.188;2023-01-25T00:19:18;100236.34;;;17.50;33.70
37848;BME280;23688;33.130;-117.188;2023-01-25T00:21:44;100230.91;;;17.41;33.38
37848;BME280;23688;33.130;-117.188;2023-01-25T00:24:13;100238.53;;;17.33;30.82
37848;BME280;23688;33.130;-117.188;2023-01-25T00:26:41;100226.72;;;17.15;32.28
37848;BME280;23688;33.130;-117.188;2023-01-25T00:29:14;100241.53;;;16.81;31.12
37848;BME280;23688;33.130;-117.188;2023-01-25T00:39:26;100226.19;;;16.96;31.63
37848;BME280;23688;33.130;-117.188;2023-01-25T00:41:53;100230.09;;;16.79;31.81
37848;BME280;23688;33.130;-117.188;2023-01-25T00:44:21;100227.91;;;16.64;32.05
37848;BME280;23688;33.130;-117.188;2023-01-25T00:46:47;100217.47;;;16.67;32.63
37848;BME280;23688;33.130;-117.188;2023-01-25T00:49:25;100219.72;;;16.83;32.88
37848;BME280;23688;33.130;-117.188;2023-01-25T00:51:53;100211.75;;;16.79;32.50
37848;BME280;23688;33.130;-117.188;2023-01-25T00:54:23;100228.41;;;16.81;32.32
37848;BME280;23688;33.130;-117.188;2023-01-25T00:56:50;100235.47;;;16.83;32.68
37848;BME280;23688;33.130;-117.188;2023-01-25T00:59:22;100229.78;;;16.68;33.11
37848;BME280;23688;33.130;-117.188;2023-01-25T01:01:49;100237.53;;;16.65;32.79
37848;BME280;23688;33.130;-117.188;2023-01-25T01:04:16;100239.91;;;16.56;32.45
37848;BME280;23688;33.130;-117.188;2023-01-25T01:06:43;100233.44;;;16.44;32.83
37848;BME280;23688;33.130;-117.188;2023-01-25T01:09:15;100246.63;;;16.19;32.21
37848;BME280;23688;33.130;-117.188;2023-01-25T01:11:42;100246.69;;;15.92;32.47
37848;BME280;23688;33.130;-117.188;2023-01-25T01:14:08;100252.75;;;15.91;32.46
37848;BME280;23688;33.130;-117.188;2023-01-25T01:16:35;100247.28;;;15.83;33.11
37848;BME280;23688;33.130;-117.188;2023-01-25T01:19:01;100237.91;;;15.64;33.62
37848;BME280;23688;33.130;-117.188;2023-01-25T01:21:28;100253.53;;;15.61;33.85
37848;BME280;23688;33.130;-117.188;2023-01-25T01:23:55;100249.97;;;15.59;34.73
37848;BME280;23688;33.130;-117.188;2023-01-25T01:26:21;100251.63;;;15.57;34.98
37848;BME280;23688;33.130;-117.188;2023-01-25T01:28:48;100247.50;;;15.38;34.74
37848;BME280;23688;33.130;-117.188;2023-01-25T01:31:17;100252.22;;;15.23;34.96
37848;BME280;23688;33.130;-117.188;2023-01-25T01:33:44;100262.16;;;15.07;35.34
37848;BME280;23688;33.130;-117.188;2023-01-25T01:36:15;100261.66;;;14.93;35.73
37848;BME280;23688;33.130;-117.188;2023-01-25T01:38:42;100267.88;;;14.73;35.47
37848;BME280;23688;33.130;-117.188;2023-01-25T01:41:09;100262.69;;;14.52;35.48
37848;BME280;23688;33.130;-117.188;2023-01-25T01:43:37;100262.16;;;14.38;35.79
37848;BME280;23688;33.130;-117.188;2023-01-25T01:51:57;100282.56;;;14.24;36.55
37848;BME280;23688;33.130;-117.188;2023-01-25T01:57:12;100282.41;;;13.99;37.37
37848;BME280;23688;33.130;-117.188;2023-01-25T01:59:51;100292.66;;;13.94;37.50
37848;BME280;23688;33.130;-117.188;2023-01-25T02:02:18;100284.63;;;13.89;37.83
37848;BME280;23688;33.130;-117.188;2023-01-25T02:04:46;100273.47;;;13.71;38.00
37848;BME280;23688;33.130;-117.188;2023-01-25T02:07:18;100298.78;;;13.74;37.86
37848;BME280;23688;33.130;-117.188;2023-01-25T02:09:46;100288.91;;;13.66;38.85
37848;BME280;23688;33.130;-117.188;2023-01-25T02:12:13;100292.97;;;13.60;39.34
37848;BME280;23688;33.130;-117.188;2023-01-25T02:14:46;100272.69;;;13.32;40.03
37848;BME280;23688;33.130;-117.188;2023-01-25T02:17:13;100291.75;;;13.31;41.90
37848;BME280;23688;33.130;-117.188;2023-01-25T02:19:45;100307.88;;;13.22;42.96
37848;BME280;23688;33.130;-117.188;2023-01-25T02:22:21;100308.75;;;13.22;44.84
37848;BME280;23688;33.130;-117.188;2023-01-25T02:25:00;100319.06;;;13.19;46.50
37848;BME280;23688;33.130;-117.188;2023-01-25T02:27:26;100313.47;;;13.12;47.51
37848;BME280;23688;33.130;-117.188;2023-01-25T02:29:53;100315.75;;;13.04;48.63
37848;BME280;23688;33.130;-117.188;2023-01-25T02:32:19;100321.38;;;12.94;49.09
37848;BME280;23688;33.130;-117.188;2023-01-25T02:34:45;100316.03;;;12.91;51.41
37848;BME280;23688;33.130;-117.188;2023-01-25T02:37:15;100321.13;;;12.88;52.46
37848;BME280;23688;33.130;-117.188;2023-01-25T02:39:41;100338.41;;;12.85;52.70
37848;BME280;23688;33.130;-117.188;2023-01-25T02:42:10;100337.97;;;12.76;52.85
37848;BME280;23688;33.130;-117.188;2023-01-25T02:44:36;100340.28;;;12.70;53.78
37848;BME280;23688;33.130;-117.188;2023-01-25T02:47:03;100340.97;;;12.66;54.97
37848;BME280;23688;33.130;-117.188;2023-01-25T02:49:29;100342.63;;;12.64;56.62
37848;BME280;23688;33.130;-117.188;2023-01-25T02:51:56;100337.41;;;12.64;58.41
37848;BME280;23688;33.130;-117.188;2023-01-25T02:54:23;100345.22;;;12.64;61.02
37848;BME280;23688;33.130;-117.188;2023-01-25T02:56:50;100333.34;;;12.51;62.89
37848;BME280;23688;33.130;-117.188;2023-01-25T02:59:16;100347.31;;;12.53;64.72
37848;BME280;23688;33.130;-117.188;2023-01-25T03:01:44;100358.34;;;12.48;64.70
37848;BME280;23688;33.130;-117.188;2023-01-25T03:04:15;100368.84;;;12.49;65.31
37848;BME280;23688;33.130;-117.188;2023-01-25T03:06:41;100357.88;;;12.38;66.48
37848;BME280;23688;33.130;-117.188;2023-01-25T03:09:09;100379.78;;;12.42;67.46
37848;BME280;23688;33.130;-117.188;2023-01-25T03:11:35;100386.53;;;12.38;68.45
37848;BME280;23688;33.130;-117.188;2023-01-25T03:14:02;100381.84;;;12.31;68.79
37848;BME280;23688;33.130;-117.188;2023-01-25T03:16:29;100387.22;;;12.34;69.52
37848;BME280;23688;33.130;-117.188;2023-01-25T03:18:56;100381.13;;;12.34;70.35
37848;BME280;23688;33.130;-117.188;2023-01-25T03:21:23;100382.53;;;12.27;71.47
37848;BME280;23688;33.130;-117.188;2023-01-25T03:24:00;100388.53;;;12.26;72.48
37848;BME280;23688;33.130;-117.188;2023-01-25T03:26:27;100392.72;;;12.23;72.91
37848;BME280;23688;33.130;-117.188;2023-01-25T03:28:54;100388.31;;;12.21;73.86
37848;BME280;23688;33.130;-117.188;2023-01-25T03:31:20;100403.88;;;12.20;73.94
37848;BME280;23688;33.130;-117.188;2023-01-25T03:33:46;100385.19;;;12.11;74.76
37848;BME280;23688;33.130;-117.188;2023-01-25T03:36:13;100401.13;;;12.17;75.57
37848;BME280;23688;33.130;-117.188;2023-01-25T03:38:39;100403.75;;;12.17;76.17
37848;BME280;23688;33.130;-117.188;2023-01-25T03:41:07;100402.59;;;12.12;76.74
37848;BME280;23688;33.130;-117.188;2023-01-25T03:43:35;100392.88;;;12.08;76.60
37848;BME280;23688;33.130;-117.188;2023-01-25T03:46:01;100405.06;;;12.09;76.74
37848;BME280;23688;33.130;-117.188;2023-01-25T03:48:28;100397.97;;;12.06;77.07
37848;BME280;23688;33.130;-117.188;2023-01-25T03:50:58;100419.13;;;12.12;78.23
37848;BME280;23688;33.130;-117.188;2023-01-25T03:53:27;100424.00;;;12.06;78.67
37848;BME280;23688;33.130;-117.188;2023-01-25T03:56:02;100430.84;;;12.04;79.05
37848;BME280;23688;33.130;-117.188;2023-01-25T03:58:30;100430.56;;;11.98;79.41
37848;BME280;23688;33.130;-117.188;2023-01-25T04:01:01;100424.88;;;11.89;80.44
37848;BME280;23688;33.130;-117.188;2023-01-25T04:03:28;100445.59;;;11.87;80.37
37848;BME280;23688;33.130;-117.188;2023-01-25T04:05:55;100437.97;;;11.74;81.70
37848;BME280;23688;33.130;-117.188;2023-01-25T04:08:22;100446.25;;;11.67;82.67
37848;BME280;23688;33.130;-117.188;2023-01-25T04:10:54;100439.28;;;11.66;83.79
37848;BME280;23688;33.130;-117.188;2023-01-25T04:13:23;100441.16;;;11.68;84.45
37848;BME280;23688;33.130;-117.188;2023-01-25T04:15:50;100440.72;;;11.61;84.49
37848;BME280;23688;33.130;-117.188;2023-01-25T04:18:18;100454.06;;;11.67;84.36
37848;BME280;23688;33.130;-117.188;2023-01-25T04:20:44;100455.78;;;11.66;85.37
37848;BME280;23688;33.130;-117.188;2023-01-25T04:23:11;100456.66;;;11.67;86.09
37848;BME280;23688;33.130;-117.188;2023-01-25T04:25:38;100461.63;;;11.62;85.27
37848;BME280;23688;33.130;-117.188;2023-01-25T04:28:04;100461.88;;;11.50;85.51
37848;BME280;23688;33.130;-117.188;2023-01-25T04:30:31;100462.59;;;11.48;86.12
37848;BME280;23688;33.130;-117.188;2023-01-25T04:33:05;100448.47;;;11.43;86.64
37848;BME280;23688;33.130;-117.188;2023-01-25T04:35:34;100458.72;;;11.56;85.63
37848;BME280;23688;33.130;-117.188;2023-01-25T04:38:01;100453.16;;;11.50;85.27
37848;BME280;23688;33.130;-117.188;2023-01-25T04:40:29;100456.66;;;11.50;85.36
37848;BME280;23688;33.130;-117.188;2023-01-25T04:42:57;100476.91;;;11.56;85.60
37848;BME280;23688;33.130;-117.188;2023-01-25T04:45:25;100475.13;;;11.55;85.79
37848;BME280;23688;33.130;-117.188;2023-01-25T04:47:56;100459.00;;;11.46;85.57
37848;BME280;23688;33.130;-117.188;2023-01-25T04:50:23;100470.34;;;11.46;85.65
37848;BME280;23688;33.130;-117.188;2023-01-25T04:52:50;100468.22;;;11.39;84.50
37848;BME280;23688;33.130;-117.188;2023-01-25T04:55:17;100463.50;;;11.32;84.16
37848;BME280;23688;33.130;-117.188;2023-01-25T04:57:43;100466.56;;;11.25;83.63
37848;BME280;23688;33.130;-117.188;2023-01-25T05:00:10;100461.75;;;11.16;83.97
37848;BME280;23688;33.130;-117.188;2023-01-25T05:02:37;100460.31;;;11.05;84.26
37848;BME280;23688;33.130;-117.188;2023-01-25T05:05:08;100454.59;;;10.96;84.58
37848;BME280;23688;33.130;-117.188;2023-01-25T05:07:35;100466.34;;;10.89;85.21
37848;BME280;23688;33.130;-117.188;2023-01-25T05:10:02;100463.41;;;10.83;86.00
37848;BME280;23688;33.130;-117.188;2023-01-25T05:12:28;100455.72;;;10.69;86.09
37848;BME280;23688;33.130;-117.188;2023-01-25T05:14:54;100472.19;;;10.70;84.00
37848;BME280;23688;33.130;-117.188;2023-01-25T05:17:21;100452.28;;;10.54;81.98
37848;BME280;23688;33.130;-117.188;2023-01-25T05:19:47;100462.72;;;10.56;80.64
37848;BME280;23688;33.130;-117.188;2023-01-25T05:22:14;100469.09;;;10.46;80.54
37848;BME280;23688;33.130;-117.188;2023-01-25T05:24:42;100467.63;;;10.35;80.46
37848;BME280;23688;33.130;-117.188;2023-01-25T05:27:11;100461.34;;;10.31;80.05
37848;BME280;23688;33.130;-117.188;2023-01-25T05:29:39;100463.16;;;10.32;79.92
37848;BME280;23688;33.130;-117.188;2023-01-25T05:32:08;100474.25;;;10.30;80.74
37848;BME280;23688;33.130;-117.188;2023-01-25T05:34:35;100463.44;;;10.23;81.23
37848;BME280;23688;33.130;-117.188;2023-01-25T05:37:04;100453.53;;;10.16;82.69
37848;BME280;23688;33.130;-117.188;2023-01-25T05:39:31;100452.53;;;10.14;82.20
37848;BME280;23688;33.130;-117.188;2023-01-25T05:41:57;100470.81;;;10.16;82.37
37848;BME280;23688;33.130;-117.188;2023-01-25T05:44:24;100451.31;;;10.07;84.35
37848;BME280;23688;33.130;-117.188;2023-01-25T05:46:51;100468.09;;;10.14;83.19
37848;BME280;23688;33.130;-117.188;2023-01-25T05:49:18;100473.84;;;10.08;82.42
37848;BME280;23688;33.130;-117.188;2023-01-25T05:51:45;100451.19;;;9.91;83.89
37848;BME280;23688;33.130;-117.188;2023-01-25T05:54:14;100467.31;;;10.00;85.09
37848;BME280;23688;33.130;-117.188;2023-01-25T05:56:41;100471.41;;;9.97;85.65
37848;BME280;23688;33.130;-117.188;2023-01-25T05:59:10;100466.88;;;9.93;86.26
37848;BME280;23688;33.130;-117.188;2023-01-25T06:01:37;100470.19;;;9.90;86.42
37848;BME280;23688;33.130;-117.188;2023-01-25T06:04:04;100465.50;;;9.84;85.93
37848;BME280;23688;33.130;-117.188;2023-01-25T06:06:31;100489.72;;;9.85;86.78
37848;BME280;23688;33.130;-117.188;2023-01-25T06:08:57;100483.47;;;9.81;87.22
37848;BME280;23688;33.130;-117.188;2023-01-25T06:11:24;100479.81;;;9.78;87.15
37848;BME280;23688;33.130;-117.188;2023-01-25T06:13:50;100481.13;;;9.71;87.38
37848;BME280;23688;33.130;-117.188;2023-01-25T06:16:18;100481.56;;;9.64;87.30
37848;BME280;23688;33.130;-117.188;2023-01-25T06:18:45;100495.31;;;9.63;87.81
37848;BME280;23688;33.130;-117.188;2023-01-25T06:21:11;100487.28;;;9.58;87.90
37848;BME280;23688;33.130;-117.188;2023-01-25T06:23:38;100476.63;;;9.54;87.79
37848;BME280;23688;33.130;-117.188;2023-01-25T06:26:07;100483.59;;;9.55;88.45
37848;BME280;23688;33.130;-117.188;2023-01-25T06:28:35;100485.38;;;9.56;88.47
37848;BME280;23688;33.130;-117.188;2023-01-25T06:31:15;100480.19;;;9.56;88.32
37848;BME280;23688;33.130;-117.188;2023-01-25T06:33:42;100475.63;;;9.52;88.44
37848;BME280;23688;33.130;-117.188;2023-01-25T06:36:11;100469.06;;;9.43;88.19
37848;BME280;23688;33.130;-117.188;2023-01-25T06:38:37;100481.25;;;9.45;87.93
37848;BME280;23688;33.130;-117.188;2023-01-25T06:41:05;100477.47;;;9.39;87.37
37848;BME280;23688;33.130;-117.188;2023-01-25T06:43:33;100485.56;;;9.31;87.28
37848;BME280;23688;33.130;-117.188;2023-01-25T06:46:01;100450.13;;;9.16;87.83
37848;BME280;23688;33.130;-117.188;2023-01-25T06:48:29;100454.53;;;9.17;88.55
37848;BME280;23688;33.130;-117.188;2023-01-25T06:51:04;100479.91;;;9.23;88.82
37848;BME280;23688;33.130;-117.188;2023-01-25T06:53:32;100461.13;;;9.12;88.92
37848;BME280;23688;33.130;-117.188;2023-01-25T06:55:59;100477.91;;;9.19;88.80
37848;BME280;23688;33.130;-117.188;2023-01-25T06:58:27;100471.56;;;9.14;88.83
37848;BME280;23688;33.130;-117.188;2023-01-25T07:00:59;100473.97;;;9.11;88.73
37848;BME280;23688;33.130;-117.188;2023-01-25T07:03:29;100470.88;;;9.03;88.72
37848;BME280;23688;33.130;-117.188;2023-01-25T07:06:03;100479.56;;;9.04;88.84
37848;BME280;23688;33.130;-117.188;2023-01-25T07:08:31;100474.97;;;8.99;89.30
37848;BME280;23688;33.130;-117.188;2023-01-25T07:11:01;100473.09;;;8.97;89.29
37848;BME280;23688;33.130;-117.188;2023-01-25T07:13:30;100465.13;;;8.94;89.13
37848;BME280;23688;33.130;-117.188;2023-01-25T07:16:03;100472.13;;;8.95;88.61
37848;BME280;23688;33.130;-117.188;2023-01-25T07:18:31;100472.59;;;8.89;88.49
37848;BME280;23688;33.130;-117.188;2023-01-25T07:21:05;100486.53;;;8.91;88.27
37848;BME280;23688;33.130;-117.188;2023-01-25T07:23:33;100479.59;;;8.77;88.39
37848;BME280;23688;33.130;-117.188;2023-01-25T07:26:00;100477.91;;;8.64;88.03
37848;BME280;23688;33.130;-117.188;2023-01-25T07:28:26;100485.88;;;8.67;88.03
37848;BME280;23688;33.130;-117.188;2023-01-25T07:30:52;100481.78;;;8.57;88.15
37848;BME280;23688;33.130;-117.188;2023-01-25T07:33:19;100485.97;;;8.55;87.66
37848;BME280;23688;33.130;-117.188;2023-01-25T07:35:45;100485.88;;;8.54;87.77
37848;BME280;23688;33.130;-117.188;2023-01-25T07:38:11;100483.88;;;8.50;87.53
37848;BME280;23688;33.130;-117.188;2023-01-25T07:40:38;100491.25;;;8.44;87.68
37848;BME280;23688;33.130;-117.188;2023-01-25T07:43:04;100487.84;;;8.45;87.85
37848;BME280;23688;33.130;-117.188;2023-01-25T07:45:30;100483.69;;;8.47;87.32
37848;BME280;23688;33.130;-117.188;2023-01-25T07:47:57;100486.84;;;8.43;87.14
37848;BME280;23688;33.130;-117.188;2023-01-25T07:50:25;100491.16;;;8.42;87.92
37848;BME280;23688;33.130;-117.188;2023-01-25T07:52:53;100489.91;;;8.37;87.22
37848;BME280;23688;33.130;-117.188;2023-01-25T07:55:20;100487.09;;;8.21;87.35
37848;BME280;23688;33.130;-117.188;2023-01-25T07:57:46;100478.41;;;8.07;87.20
37848;BME280;23688;33.130;-117.188;2023-01-25T08:00:13;100482.28;;;8.00;86.02
37848;BME280;23688;33.130;-117.188;2023-01-25T08:02:39;100477.91;;;7.99;86.18
37848;BME280;23688;33.130;-117.188;2023-01-25T08:05:06;100473.09;;;7.79;86.11
37848;BME280;23688;33.130;-117.188;2023-01-25T08:07:32;100483.44;;;7.79;85.90
37848;BME280;23688;33.130;-117.188;2023-01-25T08:10:01;100476.03;;;7.71;84.96
37848;BME280;23688;33.130;-117.188;2023-01-25T08:12:27;100470.66;;;7.68;84.41
37848;BME280;23688;33.130;-117.188;2023-01-25T08:14:54;100493.44;;;7.74;85.10
37848;BME280;23688;33.130;-117.188;2023-01-25T08:17:20;100481.78;;;7.67;84.48
37848;BME280;23688;33.130;-117.188;2023-01-25T08:19:46;100484.53;;;7.57;84.03
37848;BME280;23688;33.130;-117.188;2023-01-25T08:22:15;100478.72;;;7.48;84.05
37848;BME280;23688;33.130;-117.188;2023-01-25T08:24:42;100477.50;;;7.43;86.37
37848;BME280;23688;33.130;-117.188;2023-01-25T08:27:08;100474.94;;;7.43;86.66
37848;BME280;23688;33.130;-117.188;2023-01-25T08:29:34;100477.09;;;7.37;86.80
37848;BME280;23688;33.130;-117.188;2023-01-25T08:32:00;100480.13;;;7.31;87.98
37848;BME280;23688;33.130;-117.188;2023-01-25T08:34:29;100462.88;;;7.18;88.55
37848;BME280;23688;33.130;-117.188;2023-01-25T08:36:56;100473.41;;;7.21;88.80
37848;BME280;23688;33.130;-117.188;2023-01-25T08:39:23;100459.50;;;7.19;89.16
37848;BME280;23688;33.130;-117.188;2023-01-25T08:41:49;100462.72;;;7.28;89.78
37848;BME280;23688;33.130;-117.188;2023-01-25T08:44:15;100472.50;;;7.33;90.28
37848;BME280;23688;33.130;-117.188;2023-01-25T08:46:42;100460.06;;;7.27;90.49
37848;BME280;23688;33.130;-117.188;2023-01-25T08:49:09;100455.25;;;7.20;89.86
37848;BME280;23688;33.130;-117.188;2023-01-25T08:51:35;100466.28;;;7.17;88.09
37848;BME280;23688;33.130;-117.188;2023-01-25T08:54:06;100454.28;;;7.06;88.71
37848;BME280;23688;33.130;-117.188;2023-01-25T08:56:36;100445.19;;;6.99;87.63
37848;BME280;23688;33.130;-117.188;2023-01-25T08:59:02;100460.56;;;7.10;87.69
37848;BME280;23688;33.130;-117.188;2023-01-25T09:01:28;100451.28;;;7.00;88.14
37848;BME280;23688;33.130;-117.188;2023-01-25T09:03:54;100462.25;;;6.97;87.82
37848;BME280;23688;33.130;-117.188;2023-01-25T09:06:21;100451.50;;;6.91;88.14
37848;BME280;23688;33.130;-117.188;2023-01-25T09:08:47;100459.38;;;6.93;88.38
37848;BME280;23688;33.130;-117.188;2023-01-25T09:11:19;100457.69;;;6.93;88.67
37848;BME280;23688;33.130;-117.188;2023-01-25T09:13:47;100453.19;;;6.91;88.92
37848;BME280;23688;33.130;-117.188;2023-01-25T09:16:18;100455.78;;;6.91;88.61
37848;BME280;23688;33.130;-117.188;2023-01-25T09:18:47;100461.63;;;6.88;88.62
37848;BME280;23688;33.130;-117.188;2023-01-25T09:21:15;100469.47;;;6.90;88.17
37848;BME280;23688;33.130;-117.188;2023-01-25T09:23:43;100463.66;;;6.80;87.96
37848;BME280;23688;33.130;-117.188;2023-01-25T09:26:10;100476.44;;;6.79;87.65
37848;BME280;23688;33.130;-117.188;2023-01-25T09:28:37;100469.59;;;6.68;87.70
37848;BME280;23688;33.130;-117.188;2023-01-25T09:31:04;100466.81;;;6.64;87.43
37848;BME280;23688;33.130;-117.188;2023-01-25T09:33:35;100471.16;;;6.65;88.21
37848;BME280;23688;33.130;-117.188;2023-01-25T09:36:02;100474.00;;;6.69;87.99
37848;BME280;23688;33.130;-117.188;2023-01-25T09:38:28;100477.69;;;6.72;87.44
37848;BME280;23688;33.130;-117.188;2023-01-25T09:54:38;100495.44;;;6.44;86.02
37848;BME280;23688;33.130;-117.188;2023-01-25T09:57:35;100491.38;;;6.36;86.42
37848;BME280;23688;33.130;-117.188;2023-01-25T10:00:03;100498.88;;;6.33;86.03
37848;BME280;23688;33.130;-117.188;2023-01-25T10:05:14;100501.78;;;6.14;86.71
37848;BME280;23688;33.130;-117.188;2023-01-25T10:07:55;100507.50;;;6.10;87.19
37848;BME280;23688;33.130;-117.188;2023-01-25T10:10:36;100503.78;;;6.06;87.57
37848;BME280;23688;33.130;-117.188;2023-01-25T10:13:07;100486.94;;;5.99;87.88
37848;BME280;23688;33.130;-117.188;2023-01-25T10:15:42;100495.91;;;6.05;87.78
37848;BME280;23688;33.130;-117.188;2023-01-25T10:18:26;100487.88;;;6.00;88.31
37848;BME280;23688;33.130;-117.188;2023-01-25T10:21:34;100483.38;;;5.97;87.85
37848;BME280;23688;33.130;-117.188;2023-01-25T10:26:51;100485.63;;;6.16;86.67
37848;BME280;23688;33.130;-117.188;2023-01-25T10:29:25;100490.13;;;6.19;86.67
37848;BME280;23688;33.130;-117.188;2023-01-25T10:31:54;100492.28;;;6.25;86.86
37848;BME280;23688;33.130;-117.188;2023-01-25T10:34:30;100500.09;;;6.26;86.34
37848;BME280;23688;33.130;-117.188;2023-01-25T10:37:05;100488.34;;;6.18;86.05
37848;BME280;23688;33.130;-117.188;2023-01-25T10:39:40;100496.63;;;6.14;85.61
37848;BME280;23688;33.130;-117.188;2023-01-25T10:42:11;100491.22;;;6.11;85.81
37848;BME280;23688;33.130;-117.188;2023-01-25T10:44:40;100474.66;;;6.07;85.27
37848;BME280;23688;33.130;-117.188;2023-01-25T10:52:22;100476.69;;;6.23;82.39
37848;BME280;23688;33.130;-117.188;2023-01-25T10:55:16;100473.31;;;6.24;81.71
37848;BME280;23688;33.130;-117.188;2023-01-25T10:57:47;100480.28;;;6.25;80.81
37848;BME280;23688;33.130;-117.188;2023-01-25T11:00:35;100449.75;;;6.08;81.66
37848;BME280;23688;33.130;-117.188;2023-01-25T11:03:03;100475.66;;;6.21;81.13
37848;BME280;23688;33.130;-117.188;2023-01-25T11:05:34;100466.03;;;6.18;80.97
37848;BME280;23688;33.130;-117.188;2023-01-25T11:08:25;100451.88;;;6.13;80.28
37848;BME280;23688;33.130;-117.188;2023-01-25T11:10:53;100470.84;;;6.26;78.45
37848;BME280;23688;33.130;-117.188;2023-01-25T11:13:32;100457.94;;;6.26;77.25
37848;BME280;23688;33.130;-117.188;2023-01-25T11:18:33;100437.44;;;6.27;75.94
37848;BME280;23688;33.130;-117.188;2023-01-25T11:21:12;100432.72;;;6.33;75.19
37848;BME280;23688;33.130;-117.188;2023-01-25T11:26:37;100436.53;;;6.50;73.38
37848;BME280;23688;33.130;-117.188;2023-01-25T11:31:48;100422.19;;;6.54;72.79
37848;BME280;23688;33.130;-117.188;2023-01-25T11:34:17;100428.66;;;6.60;72.49
37848;BME280;23688;33.130;-117.188;2023-01-25T11:50:40;100402.50;;;6.79;68.29
37848;BME280;23688;33.130;-117.188;2023-01-25T11:56:10;100391.84;;;6.75;66.33
37848;BME280;23688;33.130;-117.188;2023-01-25T11:58:55;100388.25;;;6.73;64.06
37848;BME280;23688;33.130;-117.188;2023-01-25T12:06:59;100376.56;;;6.78;63.31
37848;BME280;23688;33.130;-117.188;2023-01-25T12:12:23;100367.38;;;6.81;64.25
37848;BME280;23688;33.130;-117.188;2023-01-25T12:15:26;100351.44;;;6.75;65.74
37848;BME280;23688;33.130;-117.188;2023-01-25T12:23:59;100358.03;;;6.58;68.33
37848;BME280;23688;33.130;-117.188;2023-01-25T12:29:23;100366.00;;;6.50;67.21
37848;BME280;23688;33.130;-117.188;2023-01-25T12:31:59;100356.22;;;6.46;67.22
37848;BME280;23688;33.130;-117.188;2023-01-25T12:34:35;100373.72;;;6.50;67.73
37848;BME280;23688;33.130;-117.188;2023-01-25T12:37:18;100371.16;;;6.50;67.93
37848;BME280;23688;33.130;-117.188;2023-01-25T12:40:10;100372.72;;;6.48;69.47
37848;BME280;23688;33.130;-117.188;2023-01-25T12:42:46;100382.72;;;6.31;69.33
37848;BME280;23688;33.130;-117.188;2023-01-25T12:45:23;100380.94;;;6.30;69.40
37848;BME280;23688;33.130;-117.188;2023-01-25T12:47:59;100379.44;;;6.34;69.16
37848;BME280;23688;33.130;-117.188;2023-01-25T12:50:28;100391.78;;;6.38;68.17
37848;BME280;23688;33.130;-117.188;2023-01-25T12:55:54;100390.09;;;6.27;68.74
37848;BME280;23688;33.130;-117.188;2023-01-25T13:11:55;100414.56;;;5.63;71.88
37848;BME280;23688;33.130;-117.188;2023-01-25T13:14:28;100409.06;;;5.58;71.89
37848;BME280;23688;33.130;-117.188;2023-01-25T13:19:47;100409.28;;;5.49;72.17
37848;BME280;23688;33.130;-117.188;2023-01-25T13:25:27;100418.25;;;5.54;72.09
37848;BME280;23688;33.130;-117.188;2023-01-25T13:30:57;100407.47;;;5.48;71.68
37848;BME280;23688;33.130;-117.188;2023-01-25T13:33:33;100409.81;;;5.45;71.73
37848;BME280;23688;33.130;-117.188;2023-01-25T13:42:02;100426.28;;;5.47;72.95
37848;BME280;23688;33.130;-117.188;2023-01-25T13:44:33;100419.91;;;5.42;74.08
37848;BME280;23688;33.130;-117.188;2023-01-25T13:47:03;100431.53;;;5.37;74.63
37848;BME280;23688;33.130;-117.188;2023-01-25T13:49:58;100436.09;;;5.29;74.14
37848;BME280;23688;33.130;-117.188;2023-01-25T13:52:23;100440.97;;;5.26;74.17
37848;BME280;23688;33.130;-117.188;2023-01-25T13:54:53;100431.25;;;5.22;74.24
37848;BME280;23688;33.130;-117.188;2023-01-25T13:57:24;100420.69;;;5.19;74.57
37848;BME280;23688;33.130;-117.188;2023-01-25T14:00:05;100425.84;;;5.19;75.06
37848;BME280;23688;33.130;-117.188;2023-01-25T14:02:36;100432.66;;;5.19;75.45
37848;BME280;23688;33.130;-117.188;2023-01-25T14:05:04;100438.38;;;5.14;75.06
37848;BME280;23688;33.130;-117.188;2023-01-25T14:07:33;100430.28;;;5.10;75.28
37848;BME280;23688;33.130;-117.188;2023-01-25T14:10:07;100434.50;;;5.09;75.08
37848;BME280;23688;33.130;-117.188;2023-01-25T14:12:42;100428.13;;;5.04;74.57
37848;BME280;23688;33.130;-117.188;2023-01-25T14:15:31;100448.78;;;5.16;73.35
37848;BME280;23688;33.130;-117.188;2023-01-25T14:18:16;100456.06;;;5.22;72.58
37848;BME280;23688;33.130;-117.188;2023-01-25T14:20:45;100452.59;;;5.21;72.22
37848;BME280;23688;33.130;-117.188;2023-01-25T14:25:49;100450.91;;;5.22;73.05
37848;BME280;23688;33.130;-117.188;2023-01-25T14:28:18;100440.94;;;5.14;72.67
37848;BME280;23688;33.130;-117.188;2023-01-25T14:30:53;100443.53;;;5.14;72.37
37848;BME280;23688;33.130;-117.188;2023-01-25T14:33:29;100458.09;;;5.26;72.03
37848;BME280;23688;33.130;-117.188;2023-01-25T14:36:07;100467.88;;;5.30;70.94